createdAt,value
2023-01-20T00:14:50.262Z,1.34
2023-01-20T00:43:56.593Z,1.25
2023-01-20T01:12:51.158Z,1.03
2023-01-20T01:41:50.225Z,1.05
2023-01-20T02:10:56.105Z,1.3
2023-01-20T02:39:53.754Z,1.19
2023-01-20T03:08:47.653Z,0.83
2023-01-20T03:38:03.968Z,0.99
2023-01-20T04:07:01.952Z,0.85
2023-01-20T04:36:01.676Z,0.11
2023-01-20T05:05:02.444Z,-0.13
2023-01-20T05:34:04.806Z,-0.19
2023-01-20T06:03:02.940Z,-0.09
2023-01-20T06:31:50.986Z,-0.01
2023-01-20T07:00:43.534Z,0.2
2023-01-20T07:29:39.395Z,-0.05
2023-01-20T07:58:18.738Z,-0.18
2023-01-20T08:27:31.171Z,1.91
2023-01-20T08:56:41.607Z,1.25
2023-01-20T09:25:35.318Z,0.86
2023-01-20T09:54:32.220Z,1.16
2023-01-20T10:23:42.042Z,2.08
2023-01-20T10:52:27.369Z,2.44
2023-01-20T11:21:31.472Z,4.91
2023-01-20T11:50:32.808Z,5.06
2023-01-20T12:19:23.961Z,6.65
2023-01-20T12:47:50.758Z,3.81
2023-01-20T13:16:37.769Z,3.61
2023-01-20T13:45:15.839Z,3.56
2023-01-20T14:13:42.562Z,2.98
2023-01-20T14:42:56.214Z,3.3
2023-01-20T15:11:43.827Z,3.11
2023-01-20T15:40:42.381Z,3.21
2023-01-20T16:09:35.857Z,2.67
2023-01-20T16:38:43.065Z,2.35
2023-01-20T17:07:47.210Z,1.93
2023-01-20T17:36:50.248Z,1.74
2023-01-20T18:05:50.127Z,1.85
2023-01-20T18:34:49.120Z,1.65
2023-01-20T19:03:49.175Z,1.78
2023-01-20T19:32:42.801Z,1.74
2023-01-20T20:01:36.475Z,1.65
2023-01-20T20:30:28.685Z,1.51
2023-01-20T20:59:07.618Z,1.04
2023-01-20T21:27:27.225Z,1.04
2023-01-20T21:55:44.057Z,1.02
2023-01-20T22:24:03.947Z,0.91
2023-01-20T22:52:19.235Z,0.62
2023-01-20T23:20:39.075Z,0.59
2023-01-20T23:48:53.188Z,0.36
